Terminal Aerodrome Forecast
Issued by NWS

Home | Current Version | Previous Version | Text Only | Print | Product List | Glossary On
Versions: 1 2 3 4 5 6 7 8 9 10 11 12 13 14 15 16 17 18 19 20 21 22 23 24 25 26 27 28
581
FTUS43 KPAH 270520
TAFCGI
TAF
KCGI 270520Z 2706/2806 VRB03KT 4SM BR BKN250
     FM270800 00000KT 2SM BR BKN250
      TEMPO 2709/2713 1/2SM FG BKN002
     FM271430 14004KT P6SM SCT020 BKN250
     FM272000 14005KT P6SM -SHRA VCTS BKN040CB
     FM280100 VRB03KT P6SM BKN040=

USA.gov is the U.S. government's official web portal to all federal, state and local government web resources and services.